Hlavní strana
METAR-TAF:

METAR-TAF

Letiště :

Tartu, Estonsko

zeměpisná šířka: 58-18N, zeměpisná délka: 026-44E, výška: 59 m

Aktuální stav počasí

Zpráva byla vytvořena před 30 minutami, v 10:50 UTC
Jižní vítr 7 kt
Teplota 2°C
Vlhkost vzduchu 55%
Tlak 1022 hPa
Viditelnost 10 km a více
Žádná oblačnost pod 1500 m, nevyskytují se cumulonimby.

METAR: EETU 181050Z 18007KT CAVOK 02/M06 Q1022

Čas: 13:20 (11:20 UTC)

Předpověď počasí

Zpráva byla vytvořena před 14 hodinami a 20 minutami, v 21:00 UTC
Předpověď platná od 17 v 22 UTC do 18 v 04 UTC
Západoseverozápadní vítr 5 kt
Viditelnost 10 km a více
Žádná oblačnost pod 1500 m, nevyskytují se cumulonimby.
Pravděpodobnost 40% :
Dočasný
od 17 v 22 UTC do 17 v 24 UTC
Viditelnost: 1200 m
kouřmo, chuchvalce mlhy
Dočasný
od 18 v 00 UTC do 18 v 04 UTC
Viditelnost: 0700 m
ve výšce 300 ft
mrznoucí mlha

TAF: EETU 172100Z 1722/1804 30005KT CAVOK PROB40 TEMPO 1722/1724 1200 BR BCFG TEMPO 1800/1804 0700 FZFG VV003

Stav a předpovědi počasí z více než 4 000 letišť (zprávy METAR a TAF).

Červené a žluté tečky na mapě představují dostupné meteorologické stanice.

Když kurzor umístíte na tečku, zobrazí se název stanice.

Pak kliknutím zobrazíte stav a předpověď počasí.

Chcete-li změnit mapu, kliknutím na zelené tlačítko se znaménkem +mapu přiblížíte, kliknutím na zelené tlačítko se znaménkem – mapu oddálíte a kliknutím na zelené šipky přejdete na sousední mapy.


METAR-TAF: